Rocky Grove, Pennsylvania
Current Conditions -  °F | °C
As of 1:55 AM on Monday 24 Nov 2014 (Local Time) from KFKL Reporting Station
Overcast Overcast  
Wind Chill: 41°   Ceiling: 800
Heat Index: 48°   Visibility: 10mi
Dew Point: 46°   Wind: 23mph
Humidity: 93%   Direction: 140°SE
Pressure: 29.42"   Gusts: 30mph
Location:  41.4663°N, 79.8305°W
Report Text: KFKL 240655Z AUTO 14020G26KT 10SM BKN008 BKN015 OVC031 09/08 A2942 RMK AO1 P0003
Loading
Personal Weather Stations






























Interactive Weather Map New forecast layout! Learn more

10-Day Weather Forecast

Advertisements
Track Severe Weather on mobile